Time;durP1;ratioP1;P1;durP2;ratioP2;P2;SDS_P1;SDS_P2;PMS_P1;PMS_P2;Temp;Humidity;BMP_temperature;BMP_pressure;BME280_temperature;BME280_humidity;BME280_pressure;Samples;Min_cycle;Max_cycle;Signal;HPM_P1;HPM_P2
2022/03/13 00:00:17;;;;;;;17.58;12.40;;;;;;;;;;5057876;28;20395;-81
2022/03/13 00:02:46;;;;;;;14.82;11.95;;;;;;;;;;5058817;28;20832;-81
2022/03/13 00:05:16;;;;;;;15.48;12.13;;;;;;;;;;5057762;28;20411;-82
2022/03/13 00:07:43;;;;;;;15.80;12.02;;;;;;;;;;5057196;28;20400;-82
2022/03/13 00:10:10;;;;;;;16.48;12.77;;;;;;;;;;5057461;28;20861;-82
2022/03/13 00:12:36;;;;;;;16.80;11.90;;;;;;;;;;5059233;28;20459;-82
2022/03/13 00:15:09;;;;;;;16.77;11.43;;;;;;;;;;5057465;28;20800;-82
2022/03/13 00:17:35;;;;;;;16.30;11.63;;;;;;;;;;5057788;28;20531;-82
2022/03/13 00:20:03;;;;;;;16.27;11.70;;;;;;;;;;5059447;28;20843;-81
2022/03/13 00:22:33;;;;;;;14.68;11.45;;;;;;;;;;5059369;28;20373;-81
2022/03/13 00:24:59;;;;;;;16.02;11.85;;;;;;;;;;5061640;28;20504;-82
2022/03/13 00:27:26;;;;;;;18.47;11.70;;;;;;;;;;5060081;28;20374;-82
2022/03/13 00:29:53;;;;;;;15.07;11.98;;;;;;;;;;5060708;28;20430;-82
2022/03/13 00:32:21;;;;;;;15.43;11.43;;;;;;;;;;5059529;28;21220;-82
2022/03/13 00:34:47;;;;;;;17.13;11.73;;;;;;;;;;5058810;28;20856;-81
2022/03/13 00:37:13;;;;;;;17.10;11.60;;;;;;;;;;5059759;28;20894;-81
2022/03/13 00:39:40;;;;;;;17.98;12.52;;;;;;;;;;5052727;28;20388;-81
2022/03/13 00:42:06;;;;;;;17.03;12.20;;;;;;;;;;5069265;28;20428;-82
2022/03/13 00:44:33;;;;;;;15.07;11.40;;;;;;;;;;5067910;28;20798;-81
2022/03/13 00:46:59;;;;;;;17.40;12.38;;;;;;;;;;5063482;28;20374;-81
2022/03/13 00:49:25;;;;;;;15.23;11.80;;;;;;;;;;5058316;28;20372;-81
2022/03/13 00:51:51;;;;;;;17.87;11.80;;;;;;;;;;5059261;28;20932;-81
2022/03/13 00:54:17;;;;;;;15.35;11.98;;;;;;;;;;5059129;28;20390;-82
2022/03/13 00:56:43;;;;;;;15.57;11.98;;;;;;;;;;5059744;28;20442;-81
2022/03/13 00:59:09;;;;;;;14.90;11.82;;;;;;;;;;5063106;28;20409;-81
2022/03/13 01:01:35;;;;;;;15.87;12.03;;;;;;;;;;5068880;28;20421;-81
2022/03/13 01:04:01;;;;;;;17.50;12.68;;;;;;;;;;5069003;28;20429;-81
2022/03/13 01:06:27;;;;;;;14.90;11.93;;;;;;;;;;5069702;28;20370;-81
2022/03/13 01:08:53;;;;;;;18.17;11.98;;;;;;;;;;5067668;28;20396;-81
2022/03/13 01:11:20;;;;;;;15.67;11.93;;;;;;;;;;5060523;28;20445;-81
2022/03/13 01:13:47;;;;;;;15.48;12.13;;;;;;;;;;5060622;28;20437;-81
2022/03/13 01:16:17;;;;;;;15.05;12.05;;;;;;;;;;5049682;28;20399;-81
2022/03/13 01:18:48;;;;;;;16.67;11.82;;;;;;;;;;5050312;28;20375;-82
2022/03/13 01:21:14;;;;;;;14.65;11.43;;;;;;;;;;5054462;28;20390;-81
2022/03/13 01:23:40;;;;;;;14.40;11.75;;;;;;;;;;5048428;28;20392;-81
2022/03/13 01:26:36;;;;;;;16.63;12.10;;;;;;;;;;5067700;28;20451;-81
2022/03/13 01:29:03;;;;;;;15.95;12.52;;;;;;;;;;5058876;28;20400;-81
2022/03/13 01:31:30;;;;;;;15.67;11.87;;;;;;;;;;5062579;28;21019;-81
2022/03/13 01:33:57;;;;;;;17.52;12.43;;;;;;;;;;5066963;28;20427;-82
2022/03/13 01:36:24;;;;;;;16.13;11.95;;;;;;;;;;5047422;28;20383;-81
2022/03/13 01:38:55;;;;;;;16.38;12.10;;;;;;;;;;5049177;28;20368;-81
2022/03/13 01:41:21;;;;;;;15.88;11.38;;;;;;;;;;5047359;28;20888;-81
2022/03/13 01:43:48;;;;;;;14.93;12.30;;;;;;;;;;5048817;28;20858;-81
2022/03/13 01:46:14;;;;;;;17.73;11.98;;;;;;;;;;5050217;28;20396;-81
2022/03/13 01:49:02;;;;;;;15.82;11.98;;;;;;;;;;5068728;28;20382;-81
2022/03/13 01:51:28;;;;;;;14.90;11.18;;;;;;;;;;5067358;28;20410;-82
2022/03/13 01:53:55;;;;;;;15.53;11.27;;;;;;;;;;5068720;28;20847;-82
2022/03/13 01:56:22;;;;;;;15.40;10.95;;;;;;;;;;5067956;28;20467;-81
2022/03/13 01:58:51;;;;;;;15.52;10.82;;;;;;;;;;5067645;28;20382;-81
2022/03/13 02:01:18;;;;;;;13.90;10.57;;;;;;;;;;5067296;28;20601;-82
2022/03/13 02:03:45;;;;;;;14.27;10.90;;;;;;;;;;5068810;28;20370;-80
2022/03/13 02:06:12;;;;;;;16.08;11.57;;;;;;;;;;5067574;28;20370;-81
2022/03/13 02:08:38;;;;;;;13.13;10.52;;;;;;;;;;5068864;28;20885;-81
2022/03/13 02:11:05;;;;;;;17.17;12.23;;;;;;;;;;5068361;28;20406;-81
2022/03/13 02:13:32;;;;;;;15.30;11.55;;;;;;;;;;5068922;28;20381;-81
2022/03/13 02:15:58;;;;;;;14.23;11.57;;;;;;;;;;5068328;28;20396;-82
2022/03/13 02:18:25;;;;;;;15.05;11.35;;;;;;;;;;5067806;28;20755;-81
2022/03/13 02:20:51;;;;;;;15.20;11.60;;;;;;;;;;5067213;28;20374;-82
2022/03/13 02:23:28;;;;;;;17.13;12.35;;;;;;;;;;5059848;28;20479;-82
2022/03/13 02:25:58;;;;;;;15.88;11.50;;;;;;;;;;5048478;28;20378;-82
2022/03/13 02:28:25;;;;;;;16.15;11.85;;;;;;;;;;5048571;28;20417;-82
2022/03/13 02:30:52;;;;;;;15.45;11.77;;;;;;;;;;5066047;28;20810;-81
2022/03/13 02:33:20;;;;;;;16.88;11.93;;;;;;;;;;5070110;28;20472;-81
2022/03/13 02:35:51;;;;;;;16.30;12.05;;;;;;;;;;5070558;28;20378;-82
2022/03/13 02:38:19;;;;;;;14.65;11.75;;;;;;;;;;5067855;28;20463;-82
2022/03/13 02:40:45;;;;;;;14.73;12.05;;;;;;;;;;5065205;28;20473;-82
2022/03/13 02:43:11;;;;;;;16.88;12.50;;;;;;;;;;5072204;28;20469;-82
2022/03/13 02:45:38;;;;;;;15.18;12.35;;;;;;;;;;5068420;28;20399;-82
2022/03/13 02:48:06;;;;;;;19.08;13.23;;;;;;;;;;5052436;28;20380;-82
2022/03/13 02:50:33;;;;;;;19.55;13.02;;;;;;;;;;5052278;28;20495;-82
2022/03/13 02:52:59;;;;;;;17.42;13.20;;;;;;;;;;5050579;28;20433;-82
2022/03/13 02:55:25;;;;;;;19.17;13.52;;;;;;;;;;5050865;28;20392;-82
2022/03/13 02:57:52;;;;;;;19.13;13.02;;;;;;;;;;5053821;28;20381;-82
2022/03/13 03:00:19;;;;;;;17.70;13.23;;;;;;;;;;5071340;28;20386;-82
2022/03/13 03:02:45;;;;;;;17.00;13.00;;;;;;;;;;5053686;28;20385;-81
2022/03/13 03:05:11;;;;;;;18.77;14.35;;;;;;;;;;5072044;28;20390;-82
2022/03/13 03:07:37;;;;;;;18.75;14.18;;;;;;;;;;5071836;28;20416;-82
2022/03/13 03:10:05;;;;;;;17.52;14.10;;;;;;;;;;5070038;28;20756;-82
2022/03/13 03:12:34;;;;;;;20.10;14.07;;;;;;;;;;5071018;28;20386;-81
2022/03/13 03:15:01;;;;;;;17.83;13.43;;;;;;;;;;5071231;28;20381;-82
2022/03/13 03:17:28;;;;;;;19.33;13.93;;;;;;;;;;5071246;28;20382;-81
2022/03/13 03:19:54;;;;;;;18.48;14.02;;;;;;;;;;5071406;28;20374;-82
2022/03/13 03:22:19;;;;;;;21.00;15.20;;;;;;;;;;5069828;28;20702;-81
2022/03/13 03:24:48;;;;;;;19.67;15.10;;;;;;;;;;5069795;28;20473;-81
2022/03/13 03:27:16;;;;;;;19.38;14.35;;;;;;;;;;5070081;28;20390;-82
2022/03/13 03:29:42;;;;;;;18.98;15.15;;;;;;;;;;5071006;28;20397;-82
2022/03/13 03:32:08;;;;;;;19.00;14.88;;;;;;;;;;5069560;28;20414;-82
2022/03/13 03:34:35;;;;;;;19.00;13.97;;;;;;;;;;5065796;28;20376;-81
2022/03/13 03:37:02;;;;;;;19.17;14.55;;;;;;;;;;5049606;28;20426;-81
2022/03/13 03:39:29;;;;;;;32.17;15.18;;;;;;;;;;5051118;28;20376;-82
2022/03/13 03:41:55;;;;;;;19.08;14.30;;;;;;;;;;5049194;28;20380;-81
2022/03/13 03:44:22;;;;;;;20.63;15.48;;;;;;;;;;5049341;28;20403;-81
2022/03/13 03:46:48;;;;;;;18.35;14.77;;;;;;;;;;5049350;28;20415;-80
2022/03/13 03:49:14;;;;;;;21.13;14.77;;;;;;;;;;5051460;28;20380;-80
2022/03/13 03:51:40;;;;;;;20.13;15.68;;;;;;;;;;5063484;28;20412;-81
2022/03/13 03:54:07;;;;;;;19.95;15.32;;;;;;;;;;5060010;28;20409;-81
2022/03/13 03:56:34;;;;;;;18.70;15.10;;;;;;;;;;5070019;28;20416;-82
2022/03/13 03:59:00;;;;;;;20.80;15.98;;;;;;;;;;5066477;28;20973;-81
2022/03/13 04:01:26;;;;;;;20.38;14.85;;;;;;;;;;5062154;28;20392;-81
2022/03/13 04:03:52;;;;;;;19.60;14.93;;;;;;;;;;5049089;28;20750;-81
2022/03/13 04:06:19;;;;;;;18.73;14.57;;;;;;;;;;5059794;28;20394;-81
2022/03/13 04:08:45;;;;;;;22.00;15.32;;;;;;;;;;5070457;28;20408;-81
2022/03/13 04:11:11;;;;;;;18.88;14.70;;;;;;;;;;5068798;28;20501;-81
2022/03/13 04:13:38;;;;;;;19.38;14.95;;;;;;;;;;5069030;28;20407;-81
2022/03/13 04:16:05;;;;;;;20.77;15.25;;;;;;;;;;5068519;28;20386;-81
2022/03/13 04:18:31;;;;;;;18.98;14.65;;;;;;;;;;5057397;28;20384;-81
2022/03/13 04:20:59;;;;;;;20.63;14.68;;;;;;;;;;5049891;28;20371;-80
2022/03/13 04:23:26;;;;;;;20.35;14.50;;;;;;;;;;5050302;28;20360;-81
2022/03/13 04:25:52;;;;;;;19.13;14.53;;;;;;;;;;5048527;28;20897;-81
2022/03/13 04:28:18;;;;;;;17.52;13.75;;;;;;;;;;5048949;28;20524;-81
2022/03/13 04:30:47;;;;;;;19.67;15.10;;;;;;;;;;5049724;28;20403;-81
2022/03/13 04:33:16;;;;;;;18.40;13.95;;;;;;;;;;5048235;28;20400;-80
2022/03/13 04:35:43;;;;;;;17.63;12.93;;;;;;;;;;5049994;28;20487;-80
2022/03/13 04:38:10;;;;;;;19.10;14.43;;;;;;;;;;5048200;28;20376;-81
2022/03/13 04:40:36;;;;;;;19.08;14.45;;;;;;;;;;5048595;28;20744;-81
2022/03/13 04:43:03;;;;;;;17.50;13.65;;;;;;;;;;5049539;28;20383;-81
2022/03/13 04:45:29;;;;;;;18.50;13.52;;;;;;;;;;5049656;28;20368;-81
2022/03/13 04:47:56;;;;;;;17.27;13.57;;;;;;;;;;5049805;28;20392;-80
2022/03/13 04:50:23;;;;;;;16.93;12.77;;;;;;;;;;5048559;28;20422;-81
2022/03/13 04:52:49;;;;;;;15.10;12.23;;;;;;;;;;5047343;28;20386;-81
2022/03/13 04:55:18;;;;;;;18.20;12.90;;;;;;;;;;5062195;28;20365;-81
2022/03/13 04:57:44;;;;;;;16.15;12.40;;;;;;;;;;5068451;28;20857;-81
2022/03/13 05:00:10;;;;;;;16.52;12.48;;;;;;;;;;5069508;28;20373;-81
2022/03/13 05:02:37;;;;;;;17.00;12.40;;;;;;;;;;5069663;28;20394;-80
2022/03/13 05:05:03;;;;;;;16.88;13.13;;;;;;;;;;5067930;28;20382;-81
2022/03/13 05:07:30;;;;;;;16.67;12.73;;;;;;;;;;5068073;28;20459;-81
2022/03/13 05:09:56;;;;;;;17.65;12.82;;;;;;;;;;5068824;28;20524;-81
2022/03/13 05:12:28;;;;;;;17.27;12.75;;;;;;;;;;5068327;28;20764;-80
2022/03/13 05:14:57;;;;;;;17.03;12.33;;;;;;;;;;5067916;28;20506;-81
2022/03/13 05:17:23;;;;;;;17.17;12.02;;;;;;;;;;5069454;28;20779;-81
2022/03/13 05:19:49;;;;;;;16.90;12.05;;;;;;;;;;5069174;28;20358;-81
2022/03/13 05:22:15;;;;;;;17.20;12.13;;;;;;;;;;5067565;28;20409;-81
2022/03/13 05:24:41;;;;;;;15.05;11.82;;;;;;;;;;5067886;28;20902;-81
2022/03/13 05:27:07;;;;;;;18.30;12.50;;;;;;;;;;5067622;28;20385;-80
2022/03/13 05:29:33;;;;;;;15.40;11.88;;;;;;;;;;5069427;28;20366;-80
2022/03/13 05:31:59;;;;;;;20.50;13.10;;;;;;;;;;5069242;28;20771;-82
2022/03/13 05:34:25;;;;;;;16.83;12.15;;;;;;;;;;5067769;28;20378;-81
2022/03/13 05:36:51;;;;;;;17.17;11.85;;;;;;;;;;5068049;28;20875;-80
2022/03/13 05:39:17;;;;;;;16.73;11.80;;;;;;;;;;5069644;28;20404;-81
2022/03/13 05:41:43;;;;;;;16.77;12.70;;;;;;;;;;5069629;28;20457;-81
2022/03/13 05:44:12;;;;;;;16.55;12.35;;;;;;;;;;5067871;28;20366;-81
2022/03/13 05:46:39;;;;;;;15.48;12.30;;;;;;;;;;5069383;28;20468;-81
2022/03/13 05:49:05;;;;;;;16.73;12.20;;;;;;;;;;5069213;28;20453;-81
2022/03/13 05:51:35;;;;;;;16.23;11.43;;;;;;;;;;5067880;28;20410;-81
2022/03/13 05:54:02;;;;;;;15.13;11.43;;;;;;;;;;5064907;28;20404;-81
2022/03/13 05:56:28;;;;;;;16.73;12.37;;;;;;;;;;5047682;28;20384;-81
2022/03/13 05:58:54;;;;;;;16.27;11.75;;;;;;;;;;5047896;28;20421;-81
2022/03/13 06:01:20;;;;;;;16.55;12.30;;;;;;;;;;5047532;28;20495;-81
2022/03/13 06:03:46;;;;;;;17.65;12.35;;;;;;;;;;5050338;28;20399;-81
2022/03/13 06:06:14;;;;;;;15.68;11.88;;;;;;;;;;5072943;28;20382;-81
2022/03/13 06:08:40;;;;;;;16.13;12.07;;;;;;;;;;5071366;28;20461;-81
2022/03/13 06:11:06;;;;;;;22.40;12.10;;;;;;;;;;5071897;28;20551;-81
2022/03/13 06:13:32;;;;;;;16.60;12.05;;;;;;;;;;5062916;28;20372;-82
2022/03/13 06:15:58;;;;;;;16.40;12.45;;;;;;;;;;5061180;28;20756;-82
2022/03/13 06:18:25;;;;;;;15.10;11.55;;;;;;;;;;5058795;28;20489;-82
2022/03/13 06:20:51;;;;;;;16.10;12.23;;;;;;;;;;5057421;28;21296;-82
2022/03/13 06:23:17;;;;;;;23.42;12.55;;;;;;;;;;5058891;28;20929;-82
2022/03/13 06:25:43;;;;;;;34.30;13.20;;;;;;;;;;5051172;28;20430;-82
2022/03/13 06:28:10;;;;;;;15.27;11.90;;;;;;;;;;5071088;28;20381;-82
2022/03/13 06:30:36;;;;;;;17.08;12.45;;;;;;;;;;5072118;28;20933;-80
2022/03/13 06:33:02;;;;;;;16.65;12.20;;;;;;;;;;5072048;28;20386;-82
2022/03/13 06:35:28;;;;;;;15.75;11.65;;;;;;;;;;5072638;28;20370;-82
2022/03/13 06:37:55;;;;;;;15.63;11.60;;;;;;;;;;5071939;28;20380;-82
2022/03/13 06:40:23;;;;;;;17.13;12.10;;;;;;;;;;5051239;28;20785;-82
2022/03/13 06:42:49;;;;;;;15.45;11.30;;;;;;;;;;5052558;28;20383;-82
2022/03/13 06:45:15;;;;;;;17.70;12.50;;;;;;;;;;5050519;28;20414;-82
2022/03/13 06:47:44;;;;;;;18.23;13.00;;;;;;;;;;5051988;28;20415;-82
2022/03/13 06:50:10;;;;;;;17.15;12.00;;;;;;;;;;5050420;28;20742;-82
2022/03/13 06:52:36;;;;;;;16.00;12.63;;;;;;;;;;5052193;28;20502;-82
2022/03/13 06:55:04;;;;;;;18.38;12.40;;;;;;;;;;5052143;28;20410;-82
2022/03/13 06:57:30;;;;;;;15.63;11.48;;;;;;;;;;5050869;28;20399;-83
2022/03/13 07:00:00;;;;;;;14.60;10.48;;;;;;;;;;5052167;28;20388;-82
2022/03/13 07:02:26;;;;;;;16.33;11.07;;;;;;;;;;5050781;28;20376;-82
2022/03/13 07:04:52;;;;;;;14.27;10.50;;;;;;;;;;5051112;28;20383;-83
2022/03/13 07:07:18;;;;;;;16.88;11.57;;;;;;;;;;5051794;28;20746;-82
2022/03/13 07:09:44;;;;;;;14.98;11.07;;;;;;;;;;5050791;28;20480;-82
2022/03/13 07:12:12;;;;;;;18.50;11.88;;;;;;;;;;5051599;28;20560;-82
2022/03/13 07:14:41;;;;;;;14.80;10.90;;;;;;;;;;5053094;28;21045;-83
2022/03/13 07:17:07;;;;;;;25.73;11.48;;;;;;;;;;5071102;28;20374;-83
2022/03/13 07:19:34;;;;;;;29.42;11.75;;;;;;;;;;5070237;28;20401;-83
2022/03/13 07:22:00;;;;;;;16.15;10.70;;;;;;;;;;5053146;28;20388;-82
2022/03/13 07:24:26;;;;;;;16.73;10.82;;;;;;;;;;5050739;28;20395;-83
2022/03/13 07:26:52;;;;;;;15.77;10.68;;;;;;;;;;5067222;28;20382;-82
2022/03/13 07:29:18;;;;;;;12.75;10.20;;;;;;;;;;5055938;28;20395;-83
2022/03/13 07:31:45;;;;;;;14.57;10.20;;;;;;;;;;5065193;28;20394;-83
2022/03/13 07:34:11;;;;;;;20.40;11.40;;;;;;;;;;5071684;28;20409;-82
2022/03/13 07:36:39;;;;;;;16.10;10.25;;;;;;;;;;5058262;28;20392;-83
2022/03/13 07:39:05;;;;;;;17.75;10.25;;;;;;;;;;5038070;28;20812;-83
2022/03/13 07:41:31;;;;;;;15.82;10.10;;;;;;;;;;5066365;28;20366;-83
2022/03/13 07:43:57;;;;;;;12.17;9.77;;;;;;;;;;5069118;28;20420;-83
2022/03/13 07:46:23;;;;;;;14.45;10.27;;;;;;;;;;5049851;28;20526;-83
2022/03/13 07:48:49;;;;;;;13.35;8.98;;;;;;;;;;5049840;28;20460;-83
2022/03/13 07:51:17;;;;;;;11.75;9.43;;;;;;;;;;5050855;28;20400;-83
2022/03/13 07:53:43;;;;;;;33.90;11.00;;;;;;;;;;5049598;28;20375;-84
2022/03/13 07:56:09;;;;;;;14.70;10.52;;;;;;;;;;5053363;28;20445;-83
2022/03/13 07:58:35;;;;;;;14.10;9.80;;;;;;;;;;5070167;28;20868;-84
2022/03/13 08:01:01;;;;;;;12.82;9.57;;;;;;;;;;5070589;28;20443;-83
2022/03/13 08:03:35;;;;;;;14.07;9.85;;;;;;;;;;5070057;28;20389;-83
2022/03/13 08:06:02;;;;;;;14.48;9.38;;;;;;;;;;5070586;28;20370;-83
2022/03/13 08:08:28;;;;;;;12.52;9.40;;;;;;;;;;5070964;28;20373;-83
2022/03/13 08:10:53;;;;;;;14.02;9.73;;;;;;;;;;5069924;28;20398;-83
2022/03/13 08:13:19;;;;;;;12.95;8.85;;;;;;;;;;5069648;28;20716;-84
2022/03/13 08:15:45;;;;;;;13.18;8.88;;;;;;;;;;5072155;28;20393;-84
2022/03/13 08:18:12;;;;;;;13.60;9.23;;;;;;;;;;5070883;28;20519;-82
2022/03/13 08:20:38;;;;;;;12.73;9.77;;;;;;;;;;5069310;28;20410;-83
2022/03/13 08:23:04;;;;;;;10.88;8.70;;;;;;;;;;5069661;28;20461;-84
2022/03/13 08:25:30;;;;;;;11.27;8.57;;;;;;;;;;5071503;28;20465;-82
2022/03/13 08:27:57;;;;;;;36.83;10.65;;;;;;;;;;5070795;28;20457;-83
2022/03/13 08:30:23;;;;;;;13.57;8.98;;;;;;;;;;5070924;28;20735;-83
2022/03/13 08:32:49;;;;;;;22.33;9.00;;;;;;;;;;5068842;28;20948;-83
2022/03/13 08:35:15;;;;;;;12.05;9.07;;;;;;;;;;5051097;28;20509;-83
2022/03/13 08:37:41;;;;;;;12.63;9.13;;;;;;;;;;5050571;28;20368;-84
2022/03/13 08:40:09;;;;;;;12.13;9.10;;;;;;;;;;5062935;28;20386;-83
2022/03/13 08:42:34;;;;;;;13.38;9.27;;;;;;;;;;5070475;28;20871;-83
2022/03/13 08:45:05;;;;;;;12.88;9.18;;;;;;;;;;5061209;28;20386;-84
2022/03/13 08:47:31;;;;;;;15.07;9.07;;;;;;;;;;5065531;28;20374;-84
2022/03/13 08:49:57;;;;;;;13.90;10.00;;;;;;;;;;5067096;28;20447;-82
2022/03/13 08:52:23;;;;;;;12.13;9.05;;;;;;;;;;5050408;28;20829;-83
2022/03/13 08:54:49;;;;;;;13.27;9.47;;;;;;;;;;5051626;28;20448;-83
2022/03/13 08:57:15;;;;;;;13.93;8.82;;;;;;;;;;5048971;28;20443;-83
2022/03/13 08:59:41;;;;;;;21.65;9.38;;;;;;;;;;5050697;28;20471;-84
2022/03/13 09:02:09;;;;;;;12.73;8.93;;;;;;;;;;5059017;28;20394;-82
2022/03/13 09:04:35;;;;;;;11.07;8.57;;;;;;;;;;5069993;28;20385;-84
2022/03/13 09:07:01;;;;;;;10.80;8.07;;;;;;;;;;5065562;28;20899;-83
2022/03/13 09:09:27;;;;;;;17.73;8.52;;;;;;;;;;5067630;28;20390;-84
2022/03/13 09:11:53;;;;;;;14.80;9.00;;;;;;;;;;5070139;28;20406;-84
2022/03/13 09:14:20;;;;;;;13.35;9.10;;;;;;;;;;5056817;28;20411;-82
2022/03/13 09:16:46;;;;;;;10.70;8.70;;;;;;;;;;5051587;28;20378;-83
2022/03/13 09:19:12;;;;;;;12.65;9.05;;;;;;;;;;5051184;28;20383;-82
2022/03/13 09:21:39;;;;;;;10.90;8.90;;;;;;;;;;5032461;28;20475;-84
2022/03/13 09:24:09;;;;;;;13.88;10.40;;;;;;;;;;5050300;28;20364;-85
2022/03/13 09:26:36;;;;;;;13.30;8.70;;;;;;;;;;5065654;28;20380;-84
2022/03/13 09:29:03;;;;;;;21.58;9.68;;;;;;;;;;5073352;28;20368;-83
2022/03/13 09:31:29;;;;;;;12.77;8.90;;;;;;;;;;5074575;28;20478;-83
2022/03/13 09:33:55;;;;;;;11.32;9.00;;;;;;;;;;5078157;28;20383;-83
2022/03/13 09:36:21;;;;;;;13.77;8.57;;;;;;;;;;5056413;28;20375;-83
2022/03/13 09:38:47;;;;;;;11.48;8.88;;;;;;;;;;5051467;28;20437;-83
2022/03/13 09:41:13;;;;;;;12.77;8.73;;;;;;;;;;5059735;28;20415;-84
2022/03/13 09:43:40;;;;;;;19.35;9.30;;;;;;;;;;5055903;28;20384;-83
2022/03/13 09:46:06;;;;;;;14.07;9.02;;;;;;;;;;5073996;28;20382;-83
2022/03/13 09:48:35;;;;;;;14.65;9.02;;;;;;;;;;5073767;28;20370;-85
2022/03/13 09:51:07;;;;;;;12.02;8.98;;;;;;;;;;5073134;28;20414;-83
2022/03/13 09:53:34;;;;;;;12.55;8.52;;;;;;;;;;5073420;28;20378;-85
2022/03/13 09:56:01;;;;;;;13.77;9.23;;;;;;;;;;5052595;28;20384;-85
2022/03/13 09:58:29;;;;;;;10.85;8.65;;;;;;;;;;5053431;28;20394;-83
2022/03/13 10:00:55;;;;;;;12.52;8.55;;;;;;;;;;5061369;28;20390;-81
2022/03/13 10:03:21;;;;;;;15.13;8.85;;;;;;;;;;5063716;28;20374;-85
2022/03/13 10:05:48;;;;;;;10.63;8.43;;;;;;;;;;5071569;28;20922;-84
2022/03/13 10:08:15;;;;;;;11.20;8.63;;;;;;;;;;5072501;28;20941;-85
2022/03/13 10:10:45;;;;;;;10.55;8.77;;;;;;;;;;5068673;28;20439;-85
2022/03/13 10:13:35;;;;;;;19.57;8.97;;;;;;;;;;5068927;28;20382;-82
2022/03/13 10:16:05;;;;;;;17.10;9.10;;;;;;;;;;5074102;28;20378;-83
2022/03/13 10:18:31;;;;;;;14.13;9.07;;;;;;;;;;5055054;28;20976;-82
2022/03/13 10:21:27;;;;;;;12.38;8.80;;;;;;;;;;5063784;28;20394;-83
2022/03/13 10:23:53;;;;;;;12.32;8.05;;;;;;;;;;5043235;28;20479;-84
2022/03/13 10:26:19;;;;;;;14.32;8.85;;;;;;;;;;5075756;28;20413;-82
2022/03/13 10:28:45;;;;;;;12.98;8.50;;;;;;;;;;5073902;28;20856;-83
2022/03/13 10:31:17;;;;;;;13.38;8.93;;;;;;;;;;5072291;28;20927;-84
2022/03/13 10:33:43;;;;;;;11.63;8.85;;;;;;;;;;5072301;28;20386;-82
2022/03/13 10:36:17;;;;;;;9.85;8.60;;;;;;;;;;5076763;28;20407;-83
2022/03/13 10:38:44;;;;;;;12.45;8.43;;;;;;;;;;5075204;28;20374;-83
2022/03/13 10:41:10;;;;;;;20.05;9.38;;;;;;;;;;5072588;28;20381;-85
2022/03/13 10:43:52;;;;;;;11.37;8.07;;;;;;;;;;5075291;28;20366;-83
2022/03/13 10:46:52;;;;;;;12.30;8.60;;;;;;;;;;5073424;28;20367;-84
2022/03/13 10:49:31;;;;;;;11.85;7.93;;;;;;;;;;5071004;28;20397;-83
2022/03/13 10:51:59;;;;;;;10.43;8.02;;;;;;;;;;5055607;28;20428;-84
2022/03/13 10:54:34;;;;;;;11.18;7.82;;;;;;;;;;5071448;28;20739;-84
2022/03/13 10:57:22;;;;;;;14.02;8.25;;;;;;;;;;5071681;28;20366;-84
2022/03/13 11:00:09;;;;;;;11.38;8.40;;;;;;;;;;5070306;28;20397;-83
2022/03/13 11:02:35;;;;;;;11.17;8.03;;;;;;;;;;5073992;28;20389;-84
2022/03/13 11:05:01;;;;;;;12.13;8.33;;;;;;;;;;5074797;28;20370;-84
2022/03/13 11:07:27;;;;;;;12.33;8.17;;;;;;;;;;5072885;28;20842;-83
2022/03/13 11:09:54;;;;;;;11.43;8.13;;;;;;;;;;5074016;28;20378;-84
2022/03/13 11:12:20;;;;;;;19.67;9.05;;;;;;;;;;5071945;28;20398;-84
2022/03/13 11:14:58;;;;;;;11.18;8.15;;;;;;;;;;5072881;28;20389;-84
2022/03/13 11:17:26;;;;;;;14.90;7.72;;;;;;;;;;5071452;28;20489;-83
2022/03/13 11:19:55;;;;;;;11.85;7.72;;;;;;;;;;5065326;28;20765;-82
2022/03/13 11:22:28;;;;;;;10.17;7.30;;;;;;;;;;5066267;28;20462;-83
2022/03/13 11:24:59;;;;;;;11.98;7.07;;;;;;;;;;5054132;28;20422;-84
2022/03/13 11:27:25;;;;;;;9.65;6.82;;;;;;;;;;5060863;28;20362;-82
2022/03/13 11:29:53;;;;;;;8.20;6.63;;;;;;;;;;5063147;28;20396;-83
2022/03/13 11:32:38;;;;;;;8.95;6.07;;;;;;;;;;5060818;28;20406;-83
2022/03/13 11:35:13;;;;;;;10.30;6.82;;;;;;;;;;5060472;28;20945;-84
2022/03/13 11:37:43;;;;;;;9.65;5.95;;;;;;;;;;5060524;28;20372;-85
2022/03/13 11:40:10;;;;;;;10.63;5.93;;;;;;;;;;5060569;28;20919;-82
2022/03/13 11:42:48;;;;;;;6.95;5.97;;;;;;;;;;5058887;28;21677;-83
2022/03/13 11:45:30;;;;;;;8.33;5.90;;;;;;;;;;5061300;28;20382;-84
2022/03/13 11:48:09;;;;;;;7.78;5.82;;;;;;;;;;5060662;28;20380;-83
2022/03/13 11:50:58;;;;;;;7.38;5.30;;;;;;;;;;5065118;28;20484;-83
2022/03/13 11:53:28;;;;;;;8.95;5.60;;;;;;;;;;5061891;28;20370;-83
2022/03/13 11:56:03;;;;;;;11.38;6.15;;;;;;;;;;5060705;28;20878;-82
2022/03/13 11:58:48;;;;;;;8.25;5.57;;;;;;;;;;5059920;28;20411;-82
2022/03/13 12:01:15;;;;;;;6.93;5.18;;;;;;;;;;5060321;28;20467;-83
2022/03/13 12:04:00;;;;;;;12.30;5.70;;;;;;;;;;5063146;28;20372;-82
2022/03/13 12:06:45;;;;;;;9.98;5.60;;;;;;;;;;5061015;28;20499;-84
2022/03/13 12:09:30;;;;;;;24.08;6.53;;;;;;;;;;5064168;28;20377;-83
2022/03/13 12:12:03;;;;;;;10.38;5.80;;;;;;;;;;5062335;28;20882;-83
2022/03/13 12:14:50;;;;;;;13.97;6.10;;;;;;;;;;5059779;28;20854;-82
2022/03/13 12:17:16;;;;;;;8.68;5.95;;;;;;;;;;5064169;28;21009;-83
2022/03/13 12:19:43;;;;;;;8.85;6.05;;;;;;;;;;5056999;28;20856;-83
2022/03/13 12:22:10;;;;;;;44.03;8.73;;;;;;;;;;5058634;28;20370;-84
2022/03/13 12:24:37;;;;;;;8.55;5.78;;;;;;;;;;5062718;28;20395;-82
2022/03/13 12:27:05;;;;;;;10.70;6.43;;;;;;;;;;5059373;28;20853;-84
2022/03/13 12:29:34;;;;;;;7.77;5.23;;;;;;;;;;5061923;28;20431;-83
2022/03/13 12:32:01;;;;;;;8.68;6.18;;;;;;;;;;5057397;28;20770;-86
2022/03/13 12:34:28;;;;;;;11.15;6.07;;;;;;;;;;5061949;28;20825;-84
2022/03/13 12:36:54;;;;;;;8.32;5.95;;;;;;;;;;5045902;28;20429;-83
2022/03/13 12:39:20;;;;;;;7.45;5.93;;;;;;;;;;5060327;28;20377;-83
2022/03/13 12:41:55;;;;;;;8.32;6.25;;;;;;;;;;5059175;28;20411;-83
2022/03/13 12:44:22;;;;;;;11.03;6.53;;;;;;;;;;5057649;28;20380;-84
2022/03/13 12:47:08;;;;;;;10.98;6.82;;;;;;;;;;5056479;28;20397;-83
2022/03/13 12:49:36;;;;;;;9.37;6.63;;;;;;;;;;5057338;28;20454;-83
2022/03/13 12:52:13;;;;;;;8.50;6.35;;;;;;;;;;5057247;28;20877;-84
2022/03/13 12:54:40;;;;;;;31.75;8.00;;;;;;;;;;5065893;28;20429;-83
2022/03/13 12:57:08;;;;;;;10.52;6.47;;;;;;;;;;5069746;28;20363;-84
2022/03/13 12:59:36;;;;;;;11.93;6.57;;;;;;;;;;5053786;28;20466;-83
2022/03/13 13:02:10;;;;;;;8.75;6.10;;;;;;;;;;5057729;28;20418;-84
2022/03/13 13:04:40;;;;;;;9.23;6.67;;;;;;;;;;5061211;28;20370;-83
2022/03/13 13:07:09;;;;;;;31.00;8.40;;;;;;;;;;5056506;28;20374;-84
2022/03/13 13:09:36;;;;;;;8.63;6.13;;;;;;;;;;5057830;28;20370;-83
2022/03/13 13:12:02;;;;;;;20.20;7.07;;;;;;;;;;5060956;28;20402;-83
2022/03/13 13:14:29;;;;;;;7.13;5.70;;;;;;;;;;5055804;28;20438;-85
2022/03/13 13:16:56;;;;;;;9.25;6.43;;;;;;;;;;5059004;28;20929;-83
2022/03/13 13:19:22;;;;;;;28.35;7.35;;;;;;;;;;5055499;28;20402;-82
2022/03/13 13:21:59;;;;;;;37.75;8.95;;;;;;;;;;5062548;28;20435;-85
2022/03/13 13:24:34;;;;;;;8.98;6.57;;;;;;;;;;5059456;28;20388;-84
2022/03/13 13:27:05;;;;;;;14.77;6.93;;;;;;;;;;5058244;28;20370;-83
2022/03/13 13:29:39;;;;;;;12.18;7.72;;;;;;;;;;5058461;28;20399;-84
2022/03/13 13:32:24;;;;;;;10.23;7.85;;;;;;;;;;5053120;28;20419;-84
2022/03/13 13:35:02;;;;;;;9.70;7.40;;;;;;;;;;5062620;28;20451;-83
2022/03/13 13:37:28;;;;;;;13.10;7.97;;;;;;;;;;5056038;28;20405;-85
2022/03/13 13:40:08;;;;;;;10.40;7.80;;;;;;;;;;5057159;28;20467;-83
2022/03/13 13:42:36;;;;;;;10.97;7.53;;;;;;;;;;5062490;28;20368;-83
2022/03/13 13:45:04;;;;;;;9.97;7.27;;;;;;;;;;5056001;28;20480;-82
2022/03/13 13:47:30;;;;;;;11.80;6.87;;;;;;;;;;5055862;28;20448;-83
2022/03/13 13:49:56;;;;;;;8.48;6.57;;;;;;;;;;5055502;28;20401;-83
2022/03/13 13:52:29;;;;;;;10.17;7.27;;;;;;;;;;5054554;28;20837;-85
2022/03/13 13:54:55;;;;;;;9.70;7.00;;;;;;;;;;5059435;28;20896;-85
2022/03/13 13:57:22;;;;;;;8.90;6.55;;;;;;;;;;5059753;28;20928;-83
2022/03/13 13:59:49;;;;;;;9.13;6.97;;;;;;;;;;5058999;28;20725;-83
2022/03/13 14:02:17;;;;;;;10.80;7.38;;;;;;;;;;5057056;28;20425;-85
2022/03/13 14:04:45;;;;;;;9.82;7.70;;;;;;;;;;5057874;28;20427;-82
2022/03/13 14:07:13;;;;;;;11.18;7.47;;;;;;;;;;5062514;28;20392;-84
2022/03/13 14:09:39;;;;;;;14.50;7.85;;;;;;;;;;5058215;28;20383;-83
2022/03/13 14:12:06;;;;;;;11.00;7.85;;;;;;;;;;5072061;28;20403;-83
2022/03/13 14:14:33;;;;;;;11.75;8.05;;;;;;;;;;5069355;28;20379;-84
2022/03/13 14:17:00;;;;;;;8.48;7.00;;;;;;;;;;5068597;28;20852;-82
2022/03/13 14:19:27;;;;;;;10.05;7.40;;;;;;;;;;5069007;28;20374;-83
2022/03/13 14:21:55;;;;;;;14.52;7.50;;;;;;;;;;5068948;28;20473;-83
2022/03/13 14:24:21;;;;;;;13.37;8.40;;;;;;;;;;5070426;28;20417;-82
2022/03/13 14:26:49;;;;;;;26.25;8.77;;;;;;;;;;5073005;28;20373;-84
2022/03/13 14:29:15;;;;;;;14.75;7.65;;;;;;;;;;5072136;28;20381;-82